Latest Weather Observations for Naracoorte

IDS60801

Issued at 8:01 pm CDT Tuesday 9 February 2016 (issued every 30 minutes, with the page automatically refreshed every 10 minutes)

About weather observations | Map of weather stations | Latest weather observations for SA | Other Formats
Station Details ID: 026099 Name: NARACOORTE AERODROME Lat: -36.98 Lon: 140.73 Height: 49.72 m
Data from the previous 72 hours. | See also: Recent months at Naracoorte
Date/Time
CDT
Temp
°C
App
Temp
°C
Dew
Point
Rel
Hum
%
Delta-T
°C
Wind Press
QNH
hPa
Press
MSL
hPa
Rain
since 9 am
mm
Dir
 
Spd
km/h
Gust
km/h
Spd
kts
Gust
kts
09/08:00pm 24.3 18.0 9.1 38 8.2 SSE 32 39 17 21 1015.9 1015.8 -
09/07:30pm 26.8 20.5 7.3 29 10.4 SSE 30 37 16 20 1015.9 1015.8 -
09/07:00pm 28.1 21.3 7.9 28 10.9 SSE 33 39 18 21 1015.7 1015.6 -
09/06:30pm 29.5 22.1 8.5 27 11.6 SSE 37 44 20 24 1015.4 1015.3 -
09/06:04pm 30.7 26.6 7.8 24 12.6 S 19 43 10 23 1015.2 1015.1 -
09/06:00pm 31.9 28.3 3.0 16 14.7 SSW 11 19 6 10 1015.3 1015.2 -
09/05:30pm 31.7 27.2 1.9 15 14.9 SSE 15 20 8 11 1015.4 1015.3 -
09/05:00pm 32.0 28.2 3.9 17 14.5 S 13 28 7 15 1015.6 1015.5 -
09/04:30pm 32.0 28.0 3.1 16 14.7 SSE 13 22 7 12 1016.0 1015.9 -
09/04:00pm 31.5 26.5 3.5 17 14.4 SSE 19 30 10 16 1016.4 1016.3 -
09/03:30pm 30.6 26.6 2.8 17 14.0 SE 13 22 7 12 1016.9 1016.7 -
09/03:00pm 31.4 26.7 3.4 17 14.3 SE 17 26 9 14 1017.2 1017.0 -
09/02:30pm 30.9 27.7 5.3 20 13.5 SSE 11 19 6 10 1017.6 1017.4 -
09/02:00pm 29.7 26.5 5.1 21 12.8 SSE 11 19 6 10 1018.0 1017.8 -
09/01:30pm 29.5 26.0 5.6 22 12.5 SSW 13 24 7 13 1018.3 1018.1 -
09/01:00pm 28.7 25.8 6.7 25 11.7 SSW 11 17 6 9 1018.6 1018.4 -
09/12:00pm 26.5 25.2 9.8 35 9.2 S 7 15 4 8 1019.6 1019.4 0.0
09/11:30am 25.4 23.4 10.1 38 8.5 SSE 11 19 6 10 1020.0 1019.8 0.0
09/11:00am 23.8 21.4 10.1 42 7.5 S 13 19 7 10 1020.3 1020.1 0.0
09/10:30am 22.8 20.5 10.3 45 6.8 SE 13 19 7 10 1020.6 1020.4 0.0
09/10:00am 21.5 19.5 11.5 53 5.6 SSE 13 22 7 12 1020.7 1020.5 0.0
09/09:30am 19.9 17.9 11.4 58 4.7 ESE 13 20 7 11 1021.0 1020.8 0.0
09/09:00am 18.4 15.8 11.9 66 3.6 SE 17 22 9 12 1021.1 1020.9 0.0
09/08:30am 16.1 13.8 11.9 76 2.3 SE 15 19 8 10 1021.2 1021.0 0.0
09/08:00am 14.8 13.5 12.5 86 1.3 SSE 11 17 6 9 1021.3 1021.1 0.0
09/07:30am 12.3 10.3 11.4 94 0.5 SSE 13 17 7 9 1021.1 1020.9 0.0
09/07:00am 10.8 9.1 10.0 95 0.4 SSE 9 11 5 6 1021.0 1020.8 0.0
09/06:30am 10.0 6.6 9.2 95 0.4 SSE 17 17 9 9 1020.9 1020.7 0.0
09/06:00am 10.1 7.2 9.5 96 0.3 SSE 15 17 8 9 1020.7 1020.5 0.0
09/05:30am 9.8 6.4 9.0 95 0.4 SSE 17 19 9 10 1020.7 1020.5 0.0
09/05:00am 9.9 7.6 9.0 94 0.4 SSE 11 13 6 7 1020.7 1020.5 0.0
09/04:30am 10.0 7.7 9.1 94 0.4 S 11 13 6 7 1020.7 1020.5 0.0
09/04:00am 10.7 8.6 9.6 93 0.6 SSE 11 13 6 7 1020.9 1020.7 0.0
09/03:30am 11.2 8.5 10.3 94 0.5 SSE 15 17 8 9 1020.9 1020.7 0.0
09/03:00am 11.2 8.0 10.1 93 0.6 SSE 17 17 9 9 1021.0 1020.8 0.0
09/02:30am 11.6 8.9 10.3 92 0.7 S 15 17 8 9 1021.2 1021.0 0.0
09/02:00am 12.3 9.8 10.9 91 0.7 S 15 17 8 9 1021.4 1021.2 0.0
09/01:30am 12.4 10.3 11.0 91 0.7 SSE 13 15 7 8 1021.6 1021.4 0.0
09/01:00am 13.0 10.5 11.2 89 1.0 SSE 15 17 8 9 1021.9 1021.7 0.0
09/12:30am 13.9 12.0 11.9 88 1.1 SSE 13 17 7 9 1022.1 1021.9 0.0
09/12:00am 14.7 12.2 12.2 85 1.4 SSE 17 22 9 12 1022.2 1022.0 0.0
 
Date/Time
CDT
Temp
°C
App
Temp
°C
Dew
Point
Rel
Hum
%
Delta-T
°C
Wind Press
QNH
hPa
Press
MSL
hPa
Rain
since 9 am
mm
Dir
 
Spd
km/h
Gust
km/h
Spd
kts
Gust
kts
08/11:30pm 15.3 12.3 12.4 83 1.6 SSE 20 24 11 13 1022.3 1022.1 0.0
08/11:00pm 16.1 12.8 12.7 80 1.9 SSE 22 28 12 15 1022.5 1022.3 0.0
08/10:30pm 16.8 12.7 12.7 77 2.3 SSE 26 32 14 17 1022.5 1022.3 0.0
08/10:00pm 17.6 12.2 12.3 71 2.9 SSE 32 43 17 23 1022.4 1022.2 0.0
08/09:30pm 18.2 13.7 11.5 65 3.7 SSE 26 32 14 17 1022.2 1022.0 0.0
08/09:00pm 19.6 14.8 11.6 60 4.4 SSE 28 33 15 18 1021.8 1021.6 0.0
08/08:30pm 20.4 14.7 11.3 56 5.0 S 32 37 17 20 1021.4 1021.2 0.0
08/08:00pm 21.9 15.6 11.0 50 6.0 S 35 44 19 24 1020.9 1020.7 0.0
08/07:30pm 23.8 17.0 10.8 44 7.2 S 37 52 20 28 1020.6 1020.4 0.0
08/07:00pm 25.6 18.2 9.8 37 8.7 S 39 46 21 25 1020.0 1019.8 0.0
08/06:30pm 27.1 19.9 9.0 32 9.9 S 37 50 20 27 1019.8 1019.6 0.0
08/06:00pm 28.0 20.8 7.8 28 10.9 S 35 44 19 24 1019.6 1019.4 0.0
08/05:30pm 28.9 22.1 6.9 25 11.7 S 32 39 17 21 1019.8 1019.6 0.0
08/05:00pm 29.1 23.2 7.7 26 11.6 SSE 28 39 15 21 1019.9 1019.7 0.0
08/04:48pm 30.2 24.6 8.6 26 12.0 S 28 54 15 29 1019.9 1019.7 0.0
08/04:30pm 29.3 23.1 7.8 26 11.7 SSE 30 39 16 21 1020.0 1019.8 0.0
08/04:00pm 29.7 25.1 8.2 26 11.8 SSE 22 39 12 21 1020.2 1020.0 0.0
08/03:30pm 29.0 23.5 7.6 26 11.6 S 26 35 14 19 1020.4 1020.2 0.0
08/03:00pm 29.1 23.7 8.2 27 11.4 SSE 26 44 14 24 1020.7 1020.5 0.0
08/02:30pm 28.9 23.1 8.0 27 11.4 SSE 28 39 15 21 1020.9 1020.7 0.0
08/02:00pm 28.2 22.3 9.0 30 10.6 SSE 30 39 16 21 1021.1 1020.9 0.0
08/01:30pm 27.8 23.1 9.1 31 10.3 SSE 24 35 13 19 1021.4 1021.2 0.0
08/01:00pm 26.6 21.2 9.5 34 9.4 SSE 28 41 15 22 1021.7 1021.5 0.0
08/12:30pm 25.6 19.9 9.8 37 8.7 SSE 30 39 16 21 1021.9 1021.7 0.0
08/12:00pm 24.8 19.2 10.3 40 8.0 SSE 30 41 16 22 1022.3 1022.1 0.0
08/11:30am 23.8 18.8 10.8 44 7.2 SSE 28 37 15 20 1022.7 1022.5 0.0
08/11:00am 22.5 17.2 11.3 49 6.2 S 30 41 16 22 1022.9 1022.7 0.0
08/10:30am 21.1 15.8 11.4 54 5.4 SSE 30 39 16 21 1023.0 1022.8 0.0
08/10:00am 20.0 14.7 11.2 57 4.8 S 30 41 16 22 1023.3 1023.1 0.0
08/09:30am 19.7 14.5 11.7 60 4.4 SSE 30 41 16 22 1023.3 1023.1 0.0
08/09:00am 18.2 12.5 11.3 64 3.7 SSE 32 41 17 22 1023.3 1023.1 0.0
08/08:30am 17.7 12.5 11.5 67 3.4 SSE 30 39 16 21 1022.9 1022.7 0.0
08/08:00am 16.6 11.3 11.3 71 2.9 SSE 30 35 16 19 1022.6 1022.4 0.0
08/07:30am 15.9 11.1 11.5 75 2.4 SSE 28 33 15 18 1022.3 1022.1 0.0
08/07:00am 15.0 11.8 11.8 81 1.7 SSE 20 26 11 14 1022.1 1021.9 0.0
08/06:30am 14.3 11.0 11.6 84 1.4 SSE 20 26 11 14 1021.9 1021.7 0.0
08/06:00am 13.7 11.0 11.6 87 1.1 SSE 17 19 9 10 1021.6 1021.4 0.0
08/05:30am 13.5 10.8 11.6 88 1.0 SSE 17 20 9 11 1021.4 1021.2 0.0
08/05:00am 12.6 10.9 11.3 92 0.7 SSE 11 15 6 8 1021.2 1021.0 0.0
08/04:30am 12.0 9.9 11.1 94 0.5 S 13 15 7 8 1021.0 1020.8 0.0
08/04:00am 11.6 9.6 10.3 92 0.7 SSE 11 13 6 7 1020.8 1020.6 0.0
08/03:30am 13.0 11.4 11.7 92 0.7 S 11 15 6 8 1020.7 1020.5 0.0
08/03:00am 12.5 10.4 11.2 92 0.7 S 13 15 7 8 1020.6 1020.4 0.0
08/02:30am 13.1 11.2 11.7 91 0.7 S 13 15 7 8 1020.6 1020.4 0.0
08/02:00am 14.1 11.5 12.1 88 1.1 S 17 19 9 10 1020.8 1020.6 0.0
08/01:30am 15.0 12.2 12.7 86 1.3 SSE 19 20 10 11 1020.8 1020.6 0.0
08/01:00am 15.5 12.9 13.2 86 1.3 SSE 19 22 10 12 1020.9 1020.7 0.0
08/12:30am 16.0 13.2 13.3 84 1.5 SSE 20 26 11 14 1020.8 1020.6 0.0
08/12:00am 16.2 13.3 12.9 81 1.8 SSE 20 26 11 14 1020.7 1020.5 0.0
 
Date/Time
CDT
Temp
°C
App
Temp
°C
Dew
Point
Rel
Hum
%
Delta-T
°C
Wind Press
QNH
hPa
Press
MSL
hPa
Rain
since 9 am
mm
Dir
 
Spd
km/h
Gust
km/h
Spd
kts
Gust
kts
07/11:30pm 16.7 13.9 13.2 80 2.0 SSE 20 26 11 14 1020.8 1020.6 0.0
07/11:00pm 17.1 13.5 13.2 78 2.2 SSE 24 28 13 15 1020.5 1020.3 0.0
07/10:30pm 17.5 13.3 13.4 77 2.3 S 28 35 15 19 1020.3 1020.1 0.0
07/10:00pm 18.1 13.4 13.2 73 2.8 S 30 39 16 21 1020.0 1019.8 0.0
07/09:30pm 18.9 13.9 13.3 70 3.2 S 32 39 17 21 1019.5 1019.3 0.0
07/09:00pm 20.1 14.9 12.8 63 4.1 S 32 39 17 21 1019.0 1018.8 0.0
07/08:30pm 21.8 16.1 12.9 57 5.1 S 35 44 19 24 1018.3 1018.1 0.0
07/08:00pm 23.7 17.7 12.0 48 6.6 S 35 44 19 24 1017.8 1017.6 0.0
07/07:30pm 25.8 20.5 12.6 44 7.6 S 32 39 17 21 1017.2 1017.0 0.0
07/07:00pm 27.3 21.9 12.1 39 8.8 S 32 41 17 22 1016.6 1016.5 0.0
07/06:30pm 28.7 23.1 12.2 36 9.6 S 33 41 18 22 1016.1 1016.0 0.0
07/06:00pm 30.4 24.7 11.9 32 10.8 S 33 43 18 23 1015.8 1015.7 0.0
07/05:30pm 32.0 27.2 11.7 28 11.9 S 28 37 15 20 1015.5 1015.4 0.0
07/05:00pm 32.6 28.8 11.2 27 12.5 S 22 35 12 19 1015.2 1015.1 0.0
07/04:30pm 33.6 30.5 11.5 26 13.0 S 19 32 10 17 1015.2 1015.1 0.0
07/04:08pm 33.5 30.1 11.4 26 13.0 S 20 44 11 24 1015.2 1015.1 0.0
07/04:00pm 33.6 29.9 9.6 23 13.7 SW 19 44 10 24 1015.3 1015.2 0.0
07/03:30pm 33.0 31.2 10.9 26 12.9 S 11 22 6 12 1015.4 1015.3 0.0
07/03:00pm 32.8 31.2 10.2 25 13.0 SSW 9 24 5 13 1015.7 1015.6 0.0
07/02:30pm 33.2 31.9 11.1 26 12.9 S 9 26 5 14 1015.9 1015.8 0.0
07/02:00pm 31.8 29.0 9.9 26 12.5 SSW 15 26 8 14 1016.2 1016.1 0.0
07/01:30pm 31.4 28.8 10.7 28 11.9 S 15 20 8 11 1016.4 1016.3 0.0
07/01:00pm 30.6 28.2 11.5 30 11.1 S 15 28 8 15 1016.5 1016.4 0.0
07/12:30pm 29.6 26.9 11.6 33 10.4 S 17 24 9 13 1016.7 1016.6 0.0
07/12:00pm 28.7 25.5 11.3 34 10.0 S 19 28 10 15 1017.1 1016.9 0.0
07/11:30am 27.8 26.3 14.1 43 8.2 S 15 24 8 13 1017.2 1017.0 0.0
07/11:00am 26.8 24.4 13.9 45 7.7 S 19 24 10 13 1017.5 1017.3 0.0
07/10:30am 25.0 22.4 14.8 53 6.1 SSE 22 28 12 15 1017.6 1017.4 0.0
07/10:00am 23.2 20.4 15.3 61 4.7 SSE 24 32 13 17 1017.9 1017.7 0.0
07/09:30am 21.2 18.5 14.6 66 3.9 SSE 22 28 12 15 1017.8 1017.6 0.0
07/09:00am 19.3 16.8 14.1 72 3.0 S 20 24 11 13 1017.6 1017.4 0.0
07/08:30am 18.1 16.1 14.0 77 2.3 SSE 17 20 9 11 1017.3 1017.1 0.0
07/08:00am 16.8 14.4 14.4 86 1.4 SSE 20 22 11 12 1017.1 1016.9 0.0
07/07:30am 15.3 13.0 14.0 92 0.7 SSE 19 26 10 14 1017.0 1016.8 0.0
07/07:00am 14.0 12.2 12.2 89 1.0 SSE 13 17 7 9 1016.7 1016.6 0.0
07/06:30am 13.7 11.0 11.6 87 1.1 S 17 20 9 11 1016.3 1016.2 0.0
07/06:00am 13.1 10.5 10.8 86 1.2 SSE 15 17 8 9 1015.9 1015.8 0.0
07/05:30am 12.9 10.6 10.4 85 1.3 SSE 13 17 7 9 1015.5 1015.4 0.0
07/05:00am 13.2 11.3 10.4 83 1.5 S 11 15 6 8 1015.1 1015.0 0.0
07/04:30am 13.2 11.2 10.2 82 1.6 SSW 11 17 6 9 1014.7 1014.6 0.0
07/04:00am 13.9 11.5 10.1 78 2.0 SE 13 15 7 8 1014.3 1014.2 0.0
07/03:30am 14.4 12.9 10.6 78 2.0 SSE 9 13 5 7 1014.3 1014.2 0.0
07/03:00am 14.2 13.0 10.4 78 2.0 SSE 7 13 4 7 1014.6 1014.5 0.0
07/02:30am 14.7 13.6 10.1 74 2.4 SE 6 7 3 4 1014.7 1014.6 0.0
07/02:00am 15.0 13.3 10.0 72 2.6 SSE 9 11 5 6 1014.9 1014.8 0.0
07/01:30am 15.7 13.9 10.7 72 2.7 S 11 13 6 7 1015.1 1015.0 0.0
07/01:00am 16.1 13.8 10.6 70 2.9 SSE 13 13 7 7 1015.3 1015.2 0.0
07/12:30am 16.2 14.3 10.5 69 3.0 SSE 11 13 6 7 1015.3 1015.2 0.0
07/12:00am 17.2 14.9 10.6 65 3.5 SSE 13 13 7 7 1015.2 1015.1 0.0
 
Date/Time
CDT
Temp
°C
App
Temp
°C
Dew
Point
Rel
Hum
%
Delta-T
°C
Wind Press
QNH
hPa
Press
MSL
hPa
Rain
since 9 am
mm
Dir
 
Spd
km/h
Gust
km/h
Spd
kts
Gust
kts
06/11:30pm 18.7 16.3 11.3 62 4.0 SSE 15 17 8 9 1015.1 1015.0 0.0
06/11:00pm 19.8 16.9 11.0 57 4.8 SSE 17 20 9 11 1015.3 1015.2 0.0
06/10:30pm 21.1 18.6 10.9 52 5.6 SSE 15 19 8 10 1015.4 1015.3 0.0
06/10:00pm 21.5 18.6 10.9 51 5.8 SSE 17 20 9 11 1015.2 1015.1 0.0
06/09:30pm 22.4 19.9 11.2 49 6.2 SSE 15 19 8 10 1015.0 1014.9 0.0
06/09:00pm 23.8 20.8 10.5 43 7.4 S 17 20 9 11 1014.5 1014.4 0.0
06/08:30pm 25.9 22.0 8.8 34 9.3 SSW 19 22 10 12 1014.0 1013.9 0.0

Other Formats:

Comma delimited format used in spreadsheet applications
http://www.bom.gov.au/fwo/IDS60801/IDS60801.94820.axf

JavaScript Object Notation format (JSON) in row-major order
http://www.bom.gov.au/fwo/IDS60801/IDS60801.94820.json